Time;durP1;ratioP1;P1;durP2;ratioP2;P2;SDS_P1;SDS_P2;PMS_P1;PMS_P2;Temp;Humidity;BMP_temperature;BMP_pressure;BME280_temperature;BME280_humidity;BME280_pressure;Samples;Min_cycle;Max_cycle;Signal;HPM_P1;HPM_P2
2021/09/07 00:01:54;;;;;;;15.07;10.25;;;14.90;99.90;;;;;;5027278;28;20117;-82
2021/09/07 00:04:19;;;;;;;16.42;10.65;;;14.80;99.90;;;;;;5026830;28;20044;-82
2021/09/07 00:06:45;;;;;;;17.50;9.95;;;14.80;99.90;;;;;;5027042;28;20038;-83
2021/09/07 00:09:11;;;;;;;14.55;10.02;;;14.70;99.90;;;;;;5028051;28;20470;-83
2021/09/07 00:11:37;;;;;;;18.08;10.10;;;14.60;99.90;;;;;;5027024;28;20034;-83
2021/09/07 00:14:03;;;;;;;16.33;10.73;;;14.50;99.90;;;;;;5027198;28;20083;-83
2021/09/07 00:16:29;;;;;;;17.50;11.50;;;14.50;99.90;;;;;;5028127;28;20085;-82
2021/09/07 00:18:54;;;;;;;15.48;10.90;;;14.50;99.90;;;;;;5026753;28;20034;-83
2021/09/07 00:21:20;;;;;;;17.95;11.55;;;14.50;99.90;;;;;;5010332;28;20036;-83
2021/09/07 00:23:45;;;;;;;17.63;11.98;;;14.50;99.90;;;;;;5026980;28;20470;-83
2021/09/07 00:26:11;;;;;;;15.63;11.15;;;14.50;99.90;;;;;;5026653;28;20418;-83
2021/09/07 00:28:36;;;;;;;17.15;11.48;;;14.50;99.90;;;;;;5026637;28;20029;-83
2021/09/07 00:31:02;;;;;;;17.15;11.35;;;14.50;99.90;;;;;;5026842;28;20030;-83
2021/09/07 00:33:28;;;;;;;16.45;11.35;;;14.50;99.90;;;;;;5028012;28;20080;-82
2021/09/07 00:35:54;;;;;;;19.00;11.07;;;14.50;99.90;;;;;;5026428;28;20053;-83
2021/09/07 00:38:19;;;;;;;17.27;11.05;;;14.40;99.90;;;;;;5026364;28;20117;-83
2021/09/07 00:40:45;;;;;;;18.25;13.13;;;14.50;99.90;;;;;;5026562;28;20458;-83
2021/09/07 00:43:11;;;;;;;18.63;11.85;;;14.50;99.90;;;;;;5027698;28;20053;-83
2021/09/07 00:45:37;;;;;;;19.08;12.07;;;14.40;99.90;;;;;;5026367;28;20130;-83
2021/09/07 00:48:03;;;;;;;17.77;12.00;;;14.40;99.90;;;;;;5025915;28;20077;-83
2021/09/07 00:50:29;;;;;;;15.80;11.02;;;14.40;99.90;;;;;;5027615;28;20048;-83
2021/09/07 00:52:55;;;;;;;19.58;11.07;;;14.40;99.90;;;;;;5027575;28;20025;-83
2021/09/07 00:55:26;;;;;;;18.05;12.20;;;14.40;99.90;;;;;;5027546;28;20053;-83
2021/09/07 00:57:54;;;;;;;17.00;11.27;;;14.40;99.90;;;;;;5026997;28;20085;-83
2021/09/07 01:00:19;;;;;;;17.90;12.50;;;14.40;99.90;;;;;;5025679;28;20029;-83
2021/09/07 01:02:45;;;;;;;16.73;11.38;;;14.40;99.90;;;;;;5009691;28;20026;-82
2021/09/07 01:05:11;;;;;;;17.40;10.55;;;14.40;99.90;;;;;;5026013;28;20053;-83
2021/09/07 01:07:37;;;;;;;18.17;12.18;;;14.40;99.90;;;;;;5009545;28;20030;-84
2021/09/07 01:10:08;;;;;;;20.27;11.95;;;14.40;99.90;;;;;;5026206;28;20032;-83
2021/09/07 01:12:37;;;;;;;15.82;11.05;;;14.50;99.90;;;;;;5010203;28;20057;-83
2021/09/07 01:15:05;;;;;;;16.15;10.90;;;14.50;99.90;;;;;;5026177;28;20036;-84
2021/09/07 01:17:32;;;;;;;15.52;10.95;;;14.60;99.90;;;;;;5010078;28;20029;-83
2021/09/07 01:19:58;;;;;;;19.05;10.70;;;14.50;99.90;;;;;;5025860;28;20033;-83
2021/09/07 01:22:24;;;;;;;17.80;11.18;;;14.50;99.90;;;;;;5025437;28;20034;-84
2021/09/07 01:24:50;;;;;;;17.23;11.23;;;14.60;99.90;;;;;;5026951;28;20045;-83
2021/09/07 01:27:19;;;;;;;16.52;11.00;;;14.60;99.90;;;;;;5025709;28;20056;-83
2021/09/07 01:29:47;;;;;;;16.83;10.65;;;14.60;99.90;;;;;;5027573;28;20066;-82
2021/09/07 01:32:13;;;;;;;14.13;9.65;;;14.60;99.90;;;;;;5025713;28;20076;-82
2021/09/07 01:34:39;;;;;;;15.25;10.52;;;14.70;99.90;;;;;;5025417;28;20054;-83
2021/09/07 01:37:06;;;;;;;13.07;9.40;;;14.70;99.90;;;;;;5025374;28;20649;-83
2021/09/07 01:39:31;;;;;;;15.05;10.25;;;14.70;99.90;;;;;;5025338;28;20057;-83
2021/09/07 01:41:57;;;;;;;15.63;10.27;;;14.70;99.90;;;;;;5025439;28;20034;-82
2021/09/07 01:44:23;;;;;;;15.95;9.80;;;14.70;99.90;;;;;;5028292;28;20076;-83
2021/09/07 01:47:09;;;;;;;14.23;9.90;;;14.70;99.90;;;;;;5025041;28;20501;-82
2021/09/07 01:49:35;;;;;;;15.57;10.85;;;14.70;99.90;;;;;;4985070;28;20062;-83
2021/09/07 01:52:09;;;;;;;16.13;10.43;;;14.80;99.90;;;;;;4968913;28;20051;-83
2021/09/07 01:54:38;;;;;;;15.35;10.32;;;14.80;99.90;;;;;;4985277;28;20043;-83
2021/09/07 01:57:05;;;;;;;15.02;10.25;;;14.80;99.90;;;;;;4953070;28;20498;-83
2021/09/07 01:59:33;;;;;;;16.67;10.93;;;14.90;99.90;;;;;;4968720;28;20066;-83
2021/09/07 02:02:01;;;;;;;15.85;11.02;;;14.90;99.90;;;;;;4952918;28;20039;-83
2021/09/07 02:04:27;;;;;;;15.65;10.77;;;15.00;99.90;;;;;;4984810;28;20039;-83
2021/09/07 02:06:53;;;;;;;15.57;10.98;;;15.00;99.90;;;;;;4952706;28;20070;-84
2021/09/07 02:09:19;;;;;;;15.75;10.93;;;15.00;99.90;;;;;;4952215;28;20027;-83
2021/09/07 02:11:46;;;;;;;18.15;12.85;;;15.00;99.90;;;;;;4985051;28;20042;-83
2021/09/07 02:14:12;;;;;;;17.23;11.38;;;15.00;99.90;;;;;;4952577;28;20043;-83
2021/09/07 02:16:40;;;;;;;17.17;10.93;;;15.10;99.90;;;;;;4968543;28;20035;-82
2021/09/07 02:19:06;;;;;;;17.92;11.68;;;15.10;99.90;;;;;;4984484;28;20117;-83
2021/09/07 02:21:31;;;;;;;16.50;11.15;;;15.10;99.90;;;;;;4952514;28;20090;-83
2021/09/07 02:23:58;;;;;;;14.82;10.65;;;15.20;99.90;;;;;;4952469;28;20450;-82
2021/09/07 02:26:24;;;;;;;18.33;11.82;;;15.30;99.90;;;;;;4972681;28;20046;-83
2021/09/07 02:28:51;;;;;;;16.90;11.75;;;15.30;99.90;;;;;;5024559;28;20022;-83
2021/09/07 02:31:17;;;;;;;15.93;10.68;;;15.30;99.90;;;;;;5024811;28;20068;-83
2021/09/07 02:33:43;;;;;;;18.13;11.70;;;15.30;99.90;;;;;;5024897;28;20086;-83
2021/09/07 02:36:10;;;;;;;15.50;10.30;;;15.30;99.90;;;;;;5008624;28;20103;-82
2021/09/07 02:38:37;;;;;;;16.20;11.02;;;15.30;99.90;;;;;;5024326;28;20030;-83
2021/09/07 02:41:06;;;;;;;15.23;10.88;;;15.20;99.90;;;;;;5025994;28;20030;-83
2021/09/07 02:43:32;;;;;;;15.32;10.90;;;15.20;99.90;;;;;;5008237;28;20034;-83
2021/09/07 02:45:58;;;;;;;17.23;11.73;;;15.30;99.90;;;;;;5025745;28;20498;-83
2021/09/07 02:48:24;;;;;;;17.77;11.45;;;15.20;99.90;;;;;;5024070;28;20135;-82
2021/09/07 02:50:51;;;;;;;19.33;12.57;;;15.20;99.90;;;;;;5024513;28;20506;-83
2021/09/07 02:53:18;;;;;;;15.27;10.30;;;15.20;99.90;;;;;;5025702;28;20052;-82
2021/09/07 02:55:44;;;;;;;17.15;11.20;;;15.20;99.90;;;;;;5007990;28;20038;-83
2021/09/07 02:58:11;;;;;;;16.60;10.50;;;15.20;99.90;;;;;;5008032;28;20394;-83
2021/09/07 03:00:37;;;;;;;19.05;10.90;;;15.20;99.90;;;;;;5024346;28;20057;-83
2021/09/07 03:03:03;;;;;;;15.10;10.77;;;15.20;99.90;;;;;;5007977;28;20029;-83
2021/09/07 03:05:29;;;;;;;17.13;10.55;;;15.20;99.90;;;;;;5007798;28;20461;-83
2021/09/07 03:07:55;;;;;;;17.15;11.13;;;15.20;99.90;;;;;;5024097;28;20025;-83
2021/09/07 03:10:21;;;;;;;16.25;10.93;;;15.20;99.90;;;;;;5008100;28;20030;-83
2021/09/07 03:12:49;;;;;;;15.93;11.65;;;15.20;99.90;;;;;;5025639;28;20026;-83
2021/09/07 03:15:15;;;;;;;15.27;11.25;;;15.20;99.90;;;;;;5024282;28;20041;-83
2021/09/07 03:17:40;;;;;;;15.55;10.75;;;15.10;99.90;;;;;;5023724;28;20029;-84
2021/09/07 03:20:06;;;;;;;17.27;11.15;;;15.00;99.90;;;;;;5024142;28;20042;-83
2021/09/07 03:22:34;;;;;;;16.10;10.75;;;15.00;99.90;;;;;;5027436;28;20033;-83
2021/09/07 03:25:00;;;;;;;17.10;11.82;;;15.00;99.90;;;;;;5027826;28;20052;-83
2021/09/07 03:27:26;;;;;;;18.10;11.48;;;15.00;99.90;;;;;;5028015;28;20486;-83
2021/09/07 03:29:52;;;;;;;17.67;11.77;;;15.00;99.90;;;;;;5027859;28;20034;-84
2021/09/07 03:32:19;;;;;;;16.27;11.35;;;15.00;99.90;;;;;;5011809;28;20041;-83
2021/09/07 03:34:44;;;;;;;16.90;11.32;;;15.00;99.90;;;;;;5027580;28;20037;-83
2021/09/07 03:37:10;;;;;;;21.02;12.68;;;14.90;99.90;;;;;;5027753;28;20273;-83
2021/09/07 03:39:36;;;;;;;15.80;10.40;;;14.80;99.90;;;;;;5027579;28;20224;-83
2021/09/07 03:42:03;;;;;;;18.15;11.23;;;14.80;99.90;;;;;;5027883;28;20029;-83
2021/09/07 03:44:29;;;;;;;20.45;12.52;;;14.80;99.90;;;;;;5027691;28;20029;-83
2021/09/07 03:50:51;;;;;;;17.73;10.48;;;14.70;99.90;;;;;;4998201;28;20057;-83
2021/09/07 03:53:17;;;;;;;16.13;10.98;;;14.70;99.90;;;;;;4990491;28;20038;-83
2021/09/07 03:55:44;;;;;;;14.50;10.45;;;14.70;99.90;;;;;;4990211;28;20473;-83
2021/09/07 03:58:11;;;;;;;18.10;10.95;;;14.70;99.90;;;;;;4990006;28;20038;-83
2021/09/07 04:00:36;;;;;;;18.13;12.55;;;14.60;99.90;;;;;;4974013;28;20038;-83
2021/09/07 04:03:10;;;;;;;14.27;10.25;;;14.60;99.90;;;;;;4990247;28;20049;-83
2021/09/07 04:05:36;;;;;;;18.08;12.50;;;14.60;99.90;;;;;;5006459;28;20112;-82
2021/09/07 04:08:03;;;;;;;18.92;11.40;;;14.60;99.90;;;;;;4989844;28;20038;-83
2021/09/07 04:10:29;;;;;;;16.75;11.00;;;14.60;99.90;;;;;;4989958;28;20034;-83
2021/09/07 04:12:55;;;;;;;17.63;11.45;;;14.50;99.90;;;;;;5006423;28;20030;-83
2021/09/07 04:15:22;;;;;;;16.23;10.82;;;14.60;99.90;;;;;;4989972;28;20026;-83
2021/09/07 04:17:50;;;;;;;16.58;11.50;;;14.60;99.90;;;;;;4997223;28;20034;-83
2021/09/07 04:20:18;;;;;;;19.58;12.23;;;14.60;99.90;;;;;;4970481;28;20034;-83
2021/09/07 04:22:44;;;;;;;17.95;11.98;;;14.60;99.90;;;;;;4970633;28;20038;-83
2021/09/07 04:25:12;;;;;;;18.20;12.30;;;14.60;99.90;;;;;;4970877;28;20046;-83
2021/09/07 04:27:38;;;;;;;19.30;12.48;;;14.60;99.90;;;;;;5004796;28;20035;-83
2021/09/07 04:30:07;;;;;;;17.42;11.30;;;14.60;99.90;;;;;;5006887;28;20036;-83
2021/09/07 04:32:32;;;;;;;13.68;10.18;;;14.60;99.90;;;;;;5021177;28;20045;-83
2021/09/07 04:34:58;;;;;;;16.70;11.40;;;14.60;99.90;;;;;;5009841;28;20045;-82
2021/09/07 04:37:24;;;;;;;17.10;10.80;;;14.70;99.90;;;;;;5028041;28;20026;-84
2021/09/07 04:39:52;;;;;;;14.98;10.98;;;14.70;99.90;;;;;;5009956;28;20041;-83
2021/09/07 04:42:18;;;;;;;18.75;11.25;;;14.70;99.90;;;;;;5026488;28;20095;-83
2021/09/07 04:44:45;;;;;;;14.55;10.00;;;14.70;99.90;;;;;;5026177;28;20036;-83
2021/09/07 04:47:11;;;;;;;14.82;10.43;;;14.60;99.90;;;;;;5026190;28;20065;-83
2021/09/07 04:49:37;;;;;;;18.15;12.10;;;14.50;99.90;;;;;;5010083;28;20057;-83
2021/09/07 04:52:04;;;;;;;14.27;9.77;;;14.50;99.90;;;;;;5027520;28;20049;-83
2021/09/07 04:54:29;;;;;;;19.60;12.20;;;14.40;99.90;;;;;;5026183;28;20497;-84
2021/09/07 04:56:55;;;;;;;17.38;10.68;;;14.40;99.90;;;;;;5009580;28;20030;-83
2021/09/07 04:59:20;;;;;;;16.98;10.85;;;14.40;99.90;;;;;;5026806;28;20022;-83
2021/09/07 05:01:46;;;;;;;16.75;11.13;;;14.40;99.90;;;;;;5026189;28;20061;-84
2021/09/07 05:04:12;;;;;;;18.70;11.82;;;14.50;99.90;;;;;;5026443;28;20026;-84
2021/09/07 05:06:38;;;;;;;17.90;11.70;;;14.40;99.90;;;;;;5027068;28;20482;-83
2021/09/07 05:09:03;;;;;;;17.10;11.00;;;14.40;99.90;;;;;;5009832;28;20034;-84
2021/09/07 05:11:29;;;;;;;15.63;10.98;;;14.40;99.90;;;;;;5025867;28;20029;-85
2021/09/07 05:13:55;;;;;;;17.58;11.10;;;14.30;99.90;;;;;;5022001;28;20662;-85
2021/09/07 05:16:20;;;;;;;19.02;10.88;;;14.30;99.90;;;;;;5008627;28;20332;-85
2021/09/07 05:18:46;;;;;;;17.30;10.82;;;14.30;99.90;;;;;;5024638;28;20036;-85
2021/09/07 05:21:11;;;;;;;18.67;11.90;;;14.40;99.90;;;;;;5007874;28;20048;-85
2021/09/07 05:23:37;;;;;;;19.45;10.65;;;14.40;99.90;;;;;;5026326;28;20041;-85
2021/09/07 05:26:03;;;;;;;19.05;11.68;;;14.50;99.90;;;;;;5025006;28;20388;-85
2021/09/07 05:28:29;;;;;;;18.95;11.48;;;14.40;99.90;;;;;;5024618;28;20029;-85
2021/09/07 05:30:57;;;;;;;20.95;13.25;;;14.50;99.90;;;;;;5024890;28;20116;-84
2021/09/07 05:33:23;;;;;;;19.05;13.20;;;14.40;99.90;;;;;;5008802;28;20037;-84
2021/09/07 05:35:49;;;;;;;20.67;12.93;;;14.40;99.90;;;;;;5024892;28;20026;-84
2021/09/07 05:38:14;;;;;;;22.55;11.45;;;14.40;99.90;;;;;;5008223;28;20057;-84
2021/09/07 05:40:40;;;;;;;18.05;11.45;;;14.50;99.90;;;;;;5025015;28;20042;-84
2021/09/07 05:43:06;;;;;;;18.92;12.38;;;14.40;99.90;;;;;;5024697;28;20437;-84
2021/09/07 05:45:31;;;;;;;19.48;12.85;;;14.40;99.90;;;;;;5023925;28;20532;-85
2021/09/07 05:47:57;;;;;;;17.45;11.48;;;14.50;99.90;;;;;;5024247;28;20057;-85
2021/09/07 05:50:22;;;;;;;17.05;11.48;;;14.60;99.90;;;;;;5025914;28;20062;-85
2021/09/07 05:52:48;;;;;;;17.85;11.48;;;14.60;99.90;;;;;;5024819;28;20040;-85
2021/09/07 05:55:16;;;;;;;19.58;12.27;;;14.70;99.90;;;;;;5025820;28;20034;-85
2021/09/07 05:57:42;;;;;;;16.17;11.15;;;14.80;99.90;;;;;;5024598;28;20085;-84
2021/09/07 06:00:10;;;;;;;19.33;11.90;;;14.90;99.90;;;;;;5026301;28;20030;-84
2021/09/07 06:02:40;;;;;;;18.35;12.75;;;14.90;99.90;;;;;;5025850;28;20030;-85
2021/09/07 06:05:06;;;;;;;16.42;10.63;;;15.00;99.90;;;;;;5026510;28;20030;-85
2021/09/07 06:07:32;;;;;;;19.13;12.05;;;15.20;99.90;;;;;;5024328;28;20129;-85
2021/09/07 06:09:57;;;;;;;17.65;12.35;;;15.30;99.90;;;;;;5024428;28;20036;-84
2021/09/07 06:12:24;;;;;;;19.48;12.50;;;15.40;99.90;;;;;;5007399;28;20029;-84
2021/09/07 06:14:50;;;;;;;21.67;13.25;;;15.50;99.90;;;;;;5023709;28;20026;-84
2021/09/07 06:17:16;;;;;;;18.77;12.32;;;15.50;99.90;;;;;;5025310;28;20068;-84
2021/09/07 06:19:41;;;;;;;19.17;12.30;;;15.60;99.90;;;;;;5024240;28;20034;-84
2021/09/07 06:22:07;;;;;;;19.42;13.68;;;15.70;99.90;;;;;;5024320;28;20037;-84
2021/09/07 06:24:33;;;;;;;18.45;12.90;;;15.70;99.90;;;;;;5024092;28;20034;-84
2021/09/07 06:26:58;;;;;;;18.85;12.88;;;15.80;99.90;;;;;;5007638;28;20057;-84
2021/09/07 06:29:24;;;;;;;20.08;12.90;;;15.90;99.90;;;;;;5023732;28;20034;-84
2021/09/07 06:31:50;;;;;;;19.05;12.13;;;16.00;99.90;;;;;;5024002;28;20071;-84
2021/09/07 06:34:15;;;;;;;18.92;13.20;;;16.10;99.90;;;;;;5024059;28;20073;-85
2021/09/07 06:36:43;;;;;;;20.83;13.95;;;16.20;99.90;;;;;;5024006;28;20065;-84
2021/09/07 06:39:09;;;;;;;19.00;12.88;;;16.30;99.90;;;;;;5025240;28;20033;-84
2021/09/07 06:41:35;;;;;;;17.63;12.40;;;16.40;99.90;;;;;;5023948;28;20033;-84
2021/09/07 06:44:00;;;;;;;17.83;12.07;;;16.60;99.90;;;;;;5024756;28;20036;-84
2021/09/07 06:46:26;;;;;;;17.25;12.48;;;16.70;99.90;;;;;;5025073;28;20072;-84
2021/09/07 06:48:52;;;;;;;17.58;12.38;;;16.90;99.90;;;;;;5024678;28;20026;-84
2021/09/07 06:51:17;;;;;;;18.40;13.70;;;17.10;99.90;;;;;;5023649;28;20108;-86
2021/09/07 06:53:43;;;;;;;16.38;11.93;;;17.20;99.90;;;;;;5007262;28;20038;-84
2021/09/07 06:56:08;;;;;;;18.30;11.85;;;17.40;99.90;;;;;;5023641;28;20057;-84
2021/09/07 06:58:34;;;;;;;18.92;12.70;;;17.50;99.90;;;;;;5026652;28;20108;-82
2021/09/07 07:01:01;;;;;;;17.75;11.77;;;17.80;99.90;;;;;;5028989;28;20092;-82
2021/09/07 07:03:26;;;;;;;20.98;12.73;;;17.90;99.90;;;;;;5011167;28;20030;-84
2021/09/07 07:05:53;;;;;;;17.25;12.27;;;18.20;99.90;;;;;;5011173;28;20042;-84
2021/09/07 07:08:19;;;;;;;18.10;12.00;;;18.20;99.90;;;;;;5027299;28;20490;-84
2021/09/07 07:10:44;;;;;;;17.90;12.48;;;18.20;99.90;;;;;;5028856;28;20081;-84
2021/09/07 07:13:10;;;;;;;18.02;12.13;;;18.30;99.90;;;;;;5010462;28;20034;-84
2021/09/07 07:15:36;;;;;;;16.25;11.43;;;18.30;99.90;;;;;;5027396;28;20041;-84
2021/09/07 07:18:01;;;;;;;17.42;11.27;;;18.50;99.90;;;;;;5026926;28;20029;-84
2021/09/07 07:20:27;;;;;;;15.77;11.30;;;18.60;99.90;;;;;;5010778;28;20048;-84
2021/09/07 07:22:52;;;;;;;14.35;10.65;;;18.60;99.90;;;;;;5028551;28;20052;-84
2021/09/07 07:25:18;;;;;;;15.98;11.25;;;18.70;99.90;;;;;;5027283;28;20049;-85
2021/09/07 07:27:45;;;;;;;16.42;11.63;;;18.80;99.90;;;;;;5026873;28;20088;-85
2021/09/07 07:30:11;;;;;;;16.35;11.93;;;18.90;99.90;;;;;;5027053;28;20030;-85
2021/09/07 07:32:36;;;;;;;16.75;10.70;;;18.90;99.90;;;;;;5010880;28;20034;-84
2021/09/07 07:35:04;;;;;;;16.95;11.45;;;19.00;99.90;;;;;;5027052;28;20033;-84
2021/09/07 07:37:29;;;;;;;16.05;11.25;;;19.10;99.90;;;;;;5028476;28;20075;-82
2021/09/07 07:39:55;;;;;;;17.23;11.15;;;19.20;99.90;;;;;;5026825;28;20068;-83
2021/09/07 07:42:20;;;;;;;17.42;11.90;;;19.20;99.90;;;;;;5026873;28;20033;-85
2021/09/07 07:44:47;;;;;;;16.40;11.52;;;19.30;99.90;;;;;;5026485;28;20038;-86
2021/09/07 07:47:13;;;;;;;17.15;11.73;;;19.30;99.90;;;;;;5026706;28;20084;-85
2021/09/07 07:49:39;;;;;;;16.33;11.88;;;19.40;99.90;;;;;;5026528;28;20038;-85
2021/09/07 07:52:05;;;;;;;16.17;11.68;;;19.40;99.90;;;;;;5028190;28;20036;-83
2021/09/07 07:54:30;;;;;;;16.65;11.20;;;19.40;99.90;;;;;;5010426;28;20056;-83
2021/09/07 07:56:56;;;;;;;17.38;12.88;;;19.50;99.90;;;;;;5009919;28;20038;-84
2021/09/07 07:59:22;;;;;;;16.63;11.40;;;19.50;99.90;;;;;;5027627;28;20040;-85
2021/09/07 08:01:48;;;;;;;16.27;10.70;;;19.50;99.90;;;;;;5027880;28;20050;-84
2021/09/07 08:04:14;;;;;;;14.65;10.70;;;19.70;99.90;;;;;;5010229;28;20026;-85
2021/09/07 08:06:42;;;;;;;17.88;11.75;;;19.80;99.90;;;;;;5027806;28;20478;-87
2021/09/07 08:09:10;;;;;;;16.20;11.13;;;20.00;99.90;;;;;;5026442;28;20096;-86
2021/09/07 08:11:37;;;;;;;19.65;11.82;;;20.20;99.90;;;;;;5010123;28;20080;-87
2021/09/07 08:14:04;;;;;;;15.57;10.82;;;20.50;99.90;;;;;;5026534;28;20033;-85
2021/09/07 08:16:30;;;;;;;16.10;11.73;;;20.80;99.90;;;;;;5026204;28;20034;-82
2021/09/07 08:18:56;;;;;;;18.42;12.10;;;20.90;99.90;;;;;;4990404;28;20215;-83
2021/09/07 08:21:21;;;;;;;15.30;10.05;;;20.90;99.90;;;;;;5025075;28;20034;-83
2021/09/07 08:23:47;;;;;;;15.52;11.93;;;21.10;99.90;;;;;;5025714;28;20093;-83
2021/09/07 08:26:13;;;;;;;18.27;12.90;;;21.00;99.90;;;;;;5009973;28;20129;-82
2021/09/07 08:28:39;;;;;;;15.23;10.25;;;21.00;99.90;;;;;;5009562;28;20033;-82
2021/09/07 08:31:05;;;;;;;16.67;11.02;;;21.20;99.90;;;;;;5026030;28;20457;-84
2021/09/07 08:33:31;;;;;;;15.02;10.85;;;21.30;99.90;;;;;;5026340;28;20105;-82
2021/09/07 08:35:56;;;;;;;13.77;10.00;;;21.30;99.90;;;;;;5027296;28;20041;-83
2021/09/07 08:38:22;;;;;;;13.18;9.38;;;21.60;99.90;;;;;;5025842;28;20030;-83
2021/09/07 08:40:49;;;;;;;14.15;10.07;;;21.90;99.90;;;;;;5025963;28;20167;-83
2021/09/07 08:43:18;;;;;;;14.75;10.63;;;21.90;99.90;;;;;;5009735;28;20102;-83
2021/09/07 08:45:43;;;;;;;15.73;9.95;;;22.00;99.90;;;;;;5025884;28;20048;-83
2021/09/07 08:48:09;;;;;;;15.55;10.50;;;21.90;99.90;;;;;;5025545;28;20026;-82
2021/09/07 08:50:35;;;;;;;16.40;11.05;;;21.90;99.90;;;;;;5025689;28;20100;-82
2021/09/07 08:53:00;;;;;;;12.38;9.25;;;22.00;99.90;;;;;;5009071;28;20359;-82
2021/09/07 08:55:28;;;;;;;14.82;9.15;;;22.30;99.90;;;;;;5027087;28;20041;-83
2021/09/07 08:57:53;;;;;;;15.50;10.98;;;22.80;99.90;;;;;;5009378;28;20029;-82
2021/09/07 09:00:29;;;;;;;11.68;9.20;;;22.50;99.90;;;;;;5026806;28;20034;-83
2021/09/07 09:02:56;;;;;;;14.82;9.95;;;22.50;99.90;;;;;;5009545;28;20458;-83
2021/09/07 09:05:28;;;;;;;14.55;9.48;;;22.50;99.90;;;;;;5042065;28;20041;-83
2021/09/07 09:07:54;;;;;;;11.05;7.68;;;22.70;99.90;;;;;;5025274;28;20060;-83
2021/09/07 09:10:21;;;;;;;10.93;7.93;;;23.00;99.90;;;;;;5025477;28;20030;-83
2021/09/07 09:12:47;;;;;;;16.80;8.93;;;23.40;99.90;;;;;;5042114;28;20030;-83
2021/09/07 09:15:19;;;;;;;11.35;7.80;;;23.00;99.90;;;;;;5026660;28;20056;-83
2021/09/07 09:17:44;;;;;;;9.98;7.13;;;23.40;99.90;;;;;;5026440;28;20056;-83
2021/09/07 09:20:17;;;;;;;10.55;7.28;;;23.40;99.90;;;;;;5025875;28;20034;-83
2021/09/07 09:22:48;;;;;;;10.23;7.32;;;23.60;99.90;;;;;;5025435;28;20029;-83
2021/09/07 09:25:23;;;;;;;9.95;6.70;;;23.60;99.90;;;;;;5026542;28;20048;-83
2021/09/07 09:27:50;;;;;;;9.20;6.53;;;23.70;99.90;;;;;;5026457;28;20053;-83
2021/09/07 09:30:16;;;;;;;10.05;6.68;;;23.80;99.90;;;;;;5025098;28;20065;-83
2021/09/07 09:32:49;;;;;;;8.32;6.18;;;23.80;99.90;;;;;;5026172;28;20121;-83
2021/09/07 09:35:14;;;;;;;9.35;6.07;;;23.70;99.90;;;;;;5024814;28;20103;-83
2021/09/07 09:38:04;;;;;;;9.95;6.90;;;23.60;99.90;;;;;;5026291;28;20027;-83
2021/09/07 09:40:33;;;;;;;8.23;5.45;;;23.60;99.90;;;;;;5026371;28;20149;-83
2021/09/07 09:43:17;;;;;;;9.93;5.40;;;23.80;99.90;;;;;;5026291;28;20116;-83
2021/09/07 09:45:43;;;;;;;5.28;3.90;;;23.70;99.90;;;;;;5024920;28;20056;-83
2021/09/07 09:48:27;;;;;;;9.38;5.47;;;23.80;99.90;;;;;;5007789;28;20030;-82
2021/09/07 09:50:54;;;;;;;8.98;6.32;;;23.80;99.90;;;;;;5025838;28;20053;-83
2021/09/07 09:53:21;;;;;;;7.90;5.45;;;23.80;99.90;;;;;;5024649;28;20030;-83
2021/09/07 09:55:48;;;;;;;7.35;5.00;;;24.10;99.90;;;;;;5024523;28;20053;-83
2021/09/07 09:58:17;;;;;;;6.75;4.03;;;24.40;99.90;;;;;;5025743;28;20093;-83
2021/09/07 10:00:48;;;;;;;6.40;4.85;;;24.30;99.90;;;;;;5024398;28;20522;-82
2021/09/07 10:03:14;;;;;;;5.60;3.45;;;24.90;99.90;;;;;;5024277;28;20037;-82
2021/09/07 10:05:41;;;;;;;4.90;4.03;;;24.70;99.90;;;;;;5024453;28;20045;-82
2021/09/07 10:08:11;;;;;;;6.05;2.90;;;24.80;99.90;;;;;;5024453;28;20050;-83
2021/09/07 10:10:41;;;;;;;6.07;3.40;;;24.90;99.90;;;;;;5025716;28;20064;-84
2021/09/07 10:13:09;;;;;;;5.55;3.55;;;24.80;99.90;;;;;;5025664;28;20060;-82
2021/09/07 10:15:45;;;;;;;13.63;4.82;;;24.70;99.90;;;;;;5025571;28;20037;-82
2021/09/07 10:18:51;;;;;;;6.60;4.28;;;24.90;99.90;;;;;;5025337;28;20478;-84
2021/09/07 10:22:59;;;;;;;4.63;2.97;;;24.90;99.90;;;;;;5025515;28;20054;-83
2021/09/07 10:26:42;;;;;;;4.10;2.90;;;24.80;99.90;;;;;;5025434;28;20044;-83
2021/09/07 10:29:29;;;;;;;4.43;2.95;;;24.90;99.90;;;;;;5024106;28;20058;-82
2021/09/07 10:31:58;;;;;;;5.68;3.83;;;24.90;99.90;;;;;;5025145;28;20032;-82
2021/09/07 10:34:28;;;;;;;4.57;2.88;;;24.90;99.90;;;;;;5025291;28;20034;-83
2021/09/07 10:37:05;;;;;;;3.95;2.53;;;25.00;99.90;;;;;;5025126;28;20042;-83
2021/09/07 10:39:34;;;;;;;5.00;3.17;;;25.20;99.90;;;;;;5024146;28;20030;-83
2021/09/07 10:42:02;;;;;;;4.57;2.70;;;25.30;99.90;;;;;;5023944;28;20041;-83
2021/09/07 10:44:32;;;;;;;4.53;3.00;;;25.10;99.90;;;;;;5025363;28;20029;-83
2021/09/07 10:47:01;;;;;;;5.57;3.30;;;25.10;99.90;;;;;;5019380;28;20049;-83
2021/09/07 10:49:33;;;;;;;4.20;2.97;;;25.30;99.90;;;;;;5023513;28;20137;-83
2021/09/07 10:52:05;;;;;;;6.13;3.13;;;25.50;99.90;;;;;;5023937;28;20049;-83
2021/09/07 10:54:32;;;;;;;5.30;3.03;;;25.50;99.90;;;;;;5025291;28;20038;-83
2021/09/07 10:56:59;;;;;;;5.75;3.25;;;25.80;99.90;;;;;;5007340;28;20034;-83
2021/09/07 10:59:47;;;;;;;4.97;3.53;;;26.00;99.90;;;;;;5023938;28;20084;-83
2021/09/07 11:02:33;;;;;;;6.03;3.63;;;25.60;99.90;;;;;;5023918;28;20078;-84
2021/09/07 11:05:01;;;;;;;4.82;3.03;;;25.80;99.90;;;;;;5023631;28;20034;-83
2021/09/07 11:07:42;;;;;;;7.65;3.08;;;25.80;99.90;;;;;;5023535;28;20042;-83
2021/09/07 11:10:14;;;;;;;4.75;2.72;;;25.80;99.90;;;;;;5025158;28;20026;-84
2021/09/07 11:12:48;;;;;;;5.63;3.67;;;26.00;99.90;;;;;;5007304;28;20030;-83
2021/09/07 11:15:14;;;;;;;5.30;2.85;;;25.80;99.90;;;;;;5023839;28;20375;-84
2021/09/07 11:17:59;;;;;;;5.03;2.80;;;25.40;99.90;;;;;;5006673;28;20033;-83
2021/09/07 11:20:30;;;;;;;4.53;2.80;;;25.50;99.90;;;;;;5024884;28;20034;-83
2021/09/07 11:22:57;;;;;;;4.07;2.50;;;26.00;99.90;;;;;;5023634;28;20030;-84
2021/09/07 11:25:24;;;;;;;6.75;3.30;;;25.80;99.90;;;;;;5023735;28;20045;-83
2021/09/07 11:27:52;;;;;;;4.50;3.45;;;26.00;99.90;;;;;;5024869;28;20042;-83
2021/09/07 11:30:39;;;;;;;3.90;2.72;;;25.90;99.90;;;;;;5007319;28;20056;-83
2021/09/07 11:33:10;;;;;;;4.55;2.95;;;25.80;99.90;;;;;;5023764;28;20030;-83
2021/09/07 11:35:37;;;;;;;3.00;2.03;;;25.70;99.90;;;;;;5023434;28;20038;-83
2021/09/07 11:38:09;;;;;;;6.10;2.92;;;25.90;99.90;;;;;;5023408;28;20030;-84
2021/09/07 11:40:40;;;;;;;4.32;2.92;;;25.90;99.90;;;;;;5024971;28;20447;-83
2021/09/07 11:43:06;;;;;;;4.90;2.92;;;26.00;99.90;;;;;;5024594;28;20022;-83
2021/09/07 11:45:34;;;;;;;4.38;2.08;;;26.00;99.90;;;;;;5010895;28;20076;-84
2021/09/07 11:48:02;;;;;;;3.05;2.45;;;26.30;99.90;;;;;;5026645;28;20030;-84
2021/09/07 11:50:38;;;;;;;5.00;2.47;;;26.40;99.90;;;;;;5010131;28;20056;-84
2021/09/07 11:53:08;;;;;;;3.97;2.00;;;26.60;99.90;;;;;;5028167;28;20037;-83
2021/09/07 11:55:43;;;;;;;4.28;3.25;;;26.50;99.90;;;;;;5026912;28;20049;-84
2021/09/07 11:58:10;;;;;;;4.95;2.80;;;26.10;99.90;;;;;;5026637;28;20098;-84
2021/09/07 12:00:36;;;;;;;5.97;2.50;;;26.40;99.90;;;;;;5026765;28;20036;-81
2021/09/07 12:03:11;;;;;;;3.83;2.83;;;26.40;99.90;;;;;;5010314;28;20026;-84
2021/09/07 12:05:57;;;;;;;3.83;2.40;;;26.20;99.90;;;;;;5026534;28;20414;-83
2021/09/07 12:08:47;;;;;;;2.75;1.52;;;26.30;99.90;;;;;;5004674;28;20046;-82
2021/09/07 12:11:21;;;;;;;4.07;1.77;;;26.90;99.90;;;;;;5023552;28;20038;-83
2021/09/07 12:14:08;;;;;;;4.20;2.45;;;26.60;99.90;;;;;;5006833;28;20030;-83
2021/09/07 12:16:57;;;;;;;7.30;2.70;;;26.50;99.90;;;;;;5006508;28;20113;-83
2021/09/07 12:19:27;;;;;;;3.10;2.00;;;26.90;99.90;;;;;;4990500;28;20034;-84
2021/09/07 12:22:23;;;;;;;2.75;1.92;;;27.00;99.90;;;;;;5006780;28;20090;-83
2021/09/07 12:24:59;;;;;;;3.05;2.13;;;26.50;99.90;;;;;;5006709;28;20042;-83
2021/09/07 12:27:28;;;;;;;4.53;1.88;;;26.80;99.90;;;;;;5006694;28;20042;-84
2021/09/07 12:30:08;;;;;;;4.15;2.05;;;26.70;99.90;;;;;;4990239;28;20035;-84
2021/09/07 12:32:57;;;;;;;3.25;2.30;;;26.80;99.90;;;;;;5008017;28;20035;-83
2021/09/07 12:35:28;;;;;;;4.70;2.28;;;26.50;99.90;;;;;;5006574;28;20045;-84
2021/09/07 12:37:53;;;;;;;3.63;2.45;;;26.60;99.90;;;;;;5006346;28;20049;-84
2021/09/07 12:40:19;;;;;;;3.38;1.90;;;26.50;99.90;;;;;;5007639;28;20045;-84
2021/09/07 12:42:45;;;;;;;3.92;2.65;;;26.50;99.90;;;;;;5006357;28;20090;-83
2021/09/07 12:45:10;;;;;;;4.30;2.63;;;26.70;99.90;;;;;;5006282;28;20081;-83